Terminal Aerodrome Forecast
Issued by NWS

Home | Current Version | Previous Version | Text Only | Print | Product List | Glossary On
Versions: 1 2 3 4 5 6 7 8 9 10 11 12 13
000
FTUS42 TJSJ 292341
TAFJPS
TAF
TJPS 292341Z 3000/3024 07006KT P6SM FEW030
     FM301300 11010G16KT P6SM VCSH FEW025
     FM301600 11015G20KT P6SM VCSH FEW025
     FM302300 07006KT P6SM SCT030
      AMD NOT SKED TIL 300300=

USA.gov is the U.S. government's official web portal to all federal, state and local government web resources and services.